Aérodrome :
LOGIN :

S'inscrire | Disclaimer

   EN    FR    IT 

 










Légende :    VFR   VFR Marginal   IFR   IFR Intensif   IFR Très Intensif
Visi : 
Plafond : 
>= 8 km
>= 3000ft
5 à 8 km
1000 à 3000 ft
1500m à 5 km
500 à 1000 ft
800 à 1500m
200 à 500 ft
< 800m
< 200 ft
Symboles :   Orages  Brouillard  Fortes neiges  Fortes précipitations  Vent > 20 kt
SIGMETs :   Divers  Orages  Givrage  Turbulence  Onde Orograph.  Cendres Volcan.






- Altitude de l'aérodrome : 1071 ft
- Code IATA : LWO


UKLL - L'viv

DERNIER METAR :
  • 271100Z 28004MPS 260V320 9999 BKN029 03/M02 Q1002 R31/CLRD// NOSIG

METARs EXPIRÉS :
  • 271030Z 28005MPS 260V320 9999 BKN027 03/M02 Q1002 R31/D NOSIG
  • 271000Z 29005MPS 260V330 9999 BKN022 03/M01 Q1002 R31/CLRD// NOSIG
  • 270930Z 29006MPS 250V320 9999 BKN022 03/M01 Q1002 R31/CLRD// NOSIG
  • 270900Z 30006MPS 270V330 9999 BKN019 03/M00 Q1001 R31/CLRD// NOSIG
  • 270830Z 29005MPS 260V330 9999 BKN016 02/M00 Q1001 R31/CLRD// NOSIG

TAF TAF UKLL
Valide du 27 à 06h jusqu'au 28 à 06h UTC


270507Z 2706/2806 30005MPS 5000 BR SCT005 BKN007 TX06/2712Z TNM03/2801Z
TEMPO 2706/2715 2100 -SHRA BR SCT004 BKN007 BKN020CB
BECMG 2715/2717 VRB01MPS 2100 BR
TEMPO 2717/2723 -SHRASN SCT003 BKN007 BKN020CB
TEMPO 2723/2806 -SHSN BKN004 BKN020CB



MET'MAP, la Météo Aéronautique d'un coup d'oeil ! - Copyright ORBIFLY Décembre 2007 - Disclaimer

ORBIFLY MET'MAP TEAM :

Programmation & Développement : Alexandra Zaïnal
Sur une idée originale de : Baudouin d'Aumeries
Assistance à la programmation : Marc-Olivier Méhu
Soutien technique & logistique : Manuel Goepfert

Contact : metmap@orbifly.com




SOURCES & CREDITS :

   NOAA